»·PEaware :: N122AB KSBA-KBUR

N122AB :: KSBA-KBUR

FLIGHT INFORMATION

Flight Status: Arrived
Operator: Privately registered:
United States
More flights under this callsign
Pilot: Charles Nienstedt (14675)
Aircraft: CESSNA 172 SKYHAWK
(C172)
More flights by this aircraft type
Origin: KSBA Santa Barbara Mun
United States
Destination: KBUR Bob Hope-Burbank
United States
More flights between these airports :: More routes between these airports
Route:
File this flight plan on PilotEdge
Remarks: CAT 8
Altitude:
(Current/Filed)
7,500ft
Speed:
(Current/Filed)
100kts
Departed: 20-Mar-17 03:33 PM
Arrived: 20-Mar-17 04:26 PM
Distance/Time
Traveled:
75nm/0:53
Distance/Time
To Go:
Arrived

Flight Plot

Page will automatically refresh every two minutes.


Map Options




Map Legend


Flown Route
Filed Route
Departure Airport
Arrival Airport
Navaid (VOR, NDB)
Fix

Horizontal Profiles

Position Reports

Time Latitude Longitude Heading Altitude Ground
Speed
20-Mar-17 15:12 34.421955 -119.836546 159 17ft 0kts
20-Mar-17 15:13 34.421913 -119.836648 312 17ft 4kts
20-Mar-17 15:14 34.421919 -119.836656 316 17ft 0kts
20-Mar-17 15:15 34.421919 -119.836656 316 17ft 0kts
20-Mar-17 15:16 34.421919 -119.836656 316 17ft 0kts
20-Mar-17 15:17 34.421919 -119.836656 316 17ft 0kts
20-Mar-17 15:18 34.421919 -119.836656 316 17ft 0kts
20-Mar-17 15:19 34.421919 -119.836656 316 17ft 0kts
20-Mar-17 15:20 34.421919 -119.836656 316 17ft 0kts
20-Mar-17 15:21 34.421919 -119.836656 316 17ft 0kts
20-Mar-17 15:22 34.421919 -119.836656 316 17ft 0kts
20-Mar-17 15:23 34.421919 -119.836656 316 17ft 0kts
20-Mar-17 15:24 34.421919 -119.836656 316 17ft 0kts
20-Mar-17 15:25 34.422764 -119.837219 328 17ft 7kts
20-Mar-17 15:26 34.426480 -119.838250 14 17ft 11kts
20-Mar-17 15:27 34.427050 -119.835268 13 17ft 0kts
20-Mar-17 15:28 34.427050 -119.835268 13 17ft 0kts
20-Mar-17 15:29 34.427050 -119.835268 13 17ft 0kts
20-Mar-17 15:30 34.427050 -119.835268 13 17ft 0kts
20-Mar-17 15:31 34.427050 -119.835268 13 17ft 0kts
20-Mar-17 15:32 34.427050 -119.835268 13 17ft 0kts
20-Mar-17 15:33 34.427505 -119.835124 8 17ft 10kts
20-Mar-17 15:34 34.427394 -119.857324 266 288ft 106kts
20-Mar-17 15:35 34.426017 -119.892695 264 881ft 99kts
20-Mar-17 15:36 34.422928 -119.925698 265 969ft 110kts
20-Mar-17 15:37 34.420624 -119.955076 262 1578ft 106kts
20-Mar-17 15:38 34.419599 -119.991060 275 2255ft 108kts
20-Mar-17 15:39 34.426930 -120.018746 328 2698ft 114kts
20-Mar-17 15:40 34.450539 -120.004936 59 3178ft 115kts
20-Mar-17 15:41 34.465316 -119.975153 63 3577ft 113kts
20-Mar-17 15:42 34.474583 -119.943834 68 4162ft 108kts
20-Mar-17 15:43 34.479795 -119.908173 86 4724ft 109kts
20-Mar-17 15:44 34.481623 -119.871141 86 5228ft 110kts
20-Mar-17 15:45 34.478628 -119.834120 99 5732ft 110kts
20-Mar-17 15:46 34.474033 -119.796899 102 6147ft 114kts
20-Mar-17 15:47 34.466965 -119.770526 111 6404ft 114kts
20-Mar-17 15:48 34.457740 -119.733826 105 6757ft 115kts
20-Mar-17 15:49 34.452842 -119.695581 96 7121ft 111kts
20-Mar-17 15:50 34.448300 -119.658658 95 7491ft 115kts
20-Mar-17 15:51 34.443230 -119.619339 99 7669ft 118kts
20-Mar-17 15:52 34.436343 -119.578356 102 7494ft 125kts
20-Mar-17 15:53 34.428374 -119.537968 100 7429ft 126kts
20-Mar-17 15:54 34.419700 -119.501461 104 7442ft 124kts
20-Mar-17 15:55 34.410925 -119.461204 105 7450ft 124kts
20-Mar-17 15:56 34.402517 -119.420688 100 7401ft 125kts
20-Mar-17 15:57 34.398127 -119.379855 94 7403ft 126kts
20-Mar-17 15:58 34.395032 -119.338218 96 7379ft 127kts
20-Mar-17 15:59 34.392531 -119.298939 98 7462ft 122kts
20-Mar-17 16:00 34.386406 -119.258199 101 7424ft 126kts
20-Mar-17 16:01 34.380411 -119.223460 98 7490ft 123kts
20-Mar-17 16:02 34.373057 -119.182885 103 7470ft 125kts
20-Mar-17 16:03 34.368263 -119.141950 108 7500ft 123kts
20-Mar-17 16:04 34.356495 -119.104973 114 7495ft 125kts
20-Mar-17 16:05 34.343084 -119.070399 111 7462ft 125kts
20-Mar-17 16:06 34.331631 -119.035369 117 7414ft 126kts
20-Mar-17 16:07 34.315225 -118.999342 117 7460ft 124kts
20-Mar-17 16:08 34.301854 -118.966014 95 7468ft 124kts
20-Mar-17 16:09 34.305763 -118.931894 87 7505ft 124kts
20-Mar-17 16:10 34.303886 -118.891240 101 7521ft 123kts
20-Mar-17 16:11 34.300268 -118.854558 93 7518ft 126kts
20-Mar-17 16:12 34.292795 -118.817578 116 7516ft 125kts
20-Mar-17 16:13 34.279146 -118.784588 120 7441ft 124kts
20-Mar-17 16:14 34.261850 -118.749615 127 6889ft 126kts
20-Mar-17 16:15 34.243522 -118.720665 127 6057ft 122kts
20-Mar-17 16:16 34.229468 -118.694586 110 5615ft 119kts
20-Mar-17 16:17 34.220805 -118.656243 104 5270ft 120kts
20-Mar-17 16:18 34.213762 -118.621345 106 4357ft 117kts
20-Mar-17 16:19 34.206355 -118.589972 105 3569ft 116kts
20-Mar-17 16:20 34.200493 -118.556762 98 3404ft 112kts
20-Mar-17 16:21 34.199883 -118.519130 93 3258ft 121kts
20-Mar-17 16:22 34.198986 -118.482534 90 3005ft 110kts
20-Mar-17 16:23 34.199483 -118.448277 92 2168ft 116kts
20-Mar-17 16:24 34.198822 -118.415718 89 1557ft 86kts
20-Mar-17 16:25 34.198206 -118.387592 89 1181ft 84kts
20-Mar-17 16:26 34.197839 -118.362587 90 781ft 59kts
20-Mar-17 16:27 34.196945 -118.357989 174 781ft 0kts
20-Mar-17 16:28 34.196945 -118.357989 174 781ft 0kts

Navigation Log

Ident Type
1. KSBA Airport
2. KBUR Airport